sensor_id;sensor_type;location;lat;lon;timestamp;pressure;altitude;pressure_sealevel;temperature;humidity
19827;BME280;10074;52.018;4.726;2023-04-03T00:04:42;46255.34;;;-144.79;100.00
19827;BME280;10074;52.018;4.726;2023-04-03T00:09:42;46261.34;;;-144.79;100.00
19827;BME280;10074;52.018;4.726;2023-04-03T00:14:43;46259.34;;;-144.79;100.00
19827;BME280;10074;52.018;4.726;2023-04-03T00:19:43;46255.34;;;-144.79;100.00
19827;BME280;10074;52.018;4.726;2023-04-03T00:24:43;46255.34;;;-144.79;100.00
19827;BME280;10074;52.018;4.726;2023-04-03T00:29:44;46255.34;;;-144.79;100.00
19827;BME280;10074;52.018;4.726;2023-04-03T00:34:44;46257.34;;;-144.79;100.00
19827;BME280;10074;52.018;4.726;2023-04-03T00:39:45;46257.34;;;-144.79;100.00
19827;BME280;10074;52.018;4.726;2023-04-03T00:49:47;46253.34;;;-144.79;100.00
19827;BME280;10074;52.018;4.726;2023-04-03T00:54:49;46255.34;;;-144.79;100.00
19827;BME280;10074;52.018;4.726;2023-04-03T00:59:53;46259.34;;;-144.79;100.00
19827;BME280;10074;52.018;4.726;2023-04-03T01:04:55;46261.34;;;-144.79;100.00
19827;BME280;10074;52.018;4.726;2023-04-03T01:09:58;46261.34;;;-144.79;100.00
19827;BME280;10074;52.018;4.726;2023-04-03T01:15:05;46265.38;;;-144.79;100.00
19827;BME280;10074;52.018;4.726;2023-04-03T01:25:32;46255.34;;;-144.79;100.00
19827;BME280;10074;52.018;4.726;2023-04-03T01:30:35;46255.34;;;-144.79;100.00
19827;BME280;10074;52.018;4.726;2023-04-03T01:35:38;46261.34;;;-144.79;100.00
19827;BME280;10074;52.018;4.726;2023-04-03T01:40:39;46259.34;;;-144.79;100.00
19827;BME280;10074;52.018;4.726;2023-04-03T01:45:39;46253.34;;;-144.79;100.00
19827;BME280;10074;52.018;4.726;2023-04-03T01:50:40;46251.34;;;-144.79;100.00
19827;BME280;10074;52.018;4.726;2023-04-03T01:55:41;46255.34;;;-144.79;100.00
19827;BME280;10074;52.018;4.726;2023-04-03T02:00:41;46253.34;;;-144.79;100.00
19827;BME280;10074;52.018;4.726;2023-04-03T02:05:41;46259.34;;;-144.79;100.00
19827;BME280;10074;52.018;4.726;2023-04-03T02:10:42;46263.38;;;-144.79;100.00
19827;BME280;10074;52.018;4.726;2023-04-03T02:15:42;46247.31;;;-144.79;100.00
19827;BME280;10074;52.018;4.726;2023-04-03T02:20:43;46261.34;;;-144.79;100.00
19827;BME280;10074;52.018;4.726;2023-04-03T02:25:44;46255.34;;;-144.79;100.00
19827;BME280;10074;52.018;4.726;2023-04-03T02:30:44;46249.34;;;-144.79;100.00
19827;BME280;10074;52.018;4.726;2023-04-03T02:35:45;46257.34;;;-144.79;100.00
19827;BME280;10074;52.018;4.726;2023-04-03T02:40:53;46261.34;;;-144.79;100.00
19827;BME280;10074;52.018;4.726;2023-04-03T02:45:53;46255.34;;;-144.79;100.00
19827;BME280;10074;52.018;4.726;2023-04-03T02:50:54;46249.34;;;-144.79;100.00
19827;BME280;10074;52.018;4.726;2023-04-03T02:55:54;46255.34;;;-144.79;100.00
19827;BME280;10074;52.018;4.726;2023-04-03T03:00:54;46255.34;;;-144.79;100.00
19827;BME280;10074;52.018;4.726;2023-04-03T03:06:10;46251.34;;;-144.79;100.00
19827;BME280;10074;52.018;4.726;2023-04-03T03:11:12;46237.31;;;-144.79;100.00
19827;BME280;10074;52.018;4.726;2023-04-03T03:16:12;46255.34;;;-144.79;100.00
19827;BME280;10074;52.018;4.726;2023-04-03T03:21:13;46251.34;;;-144.79;100.00
19827;BME280;10074;52.018;4.726;2023-04-03T03:26:14;46255.34;;;-144.79;100.00
19827;BME280;10074;52.018;4.726;2023-04-03T03:31:14;46247.31;;;-144.79;100.00
19827;BME280;10074;52.018;4.726;2023-04-03T03:36:15;46247.31;;;-144.79;100.00
19827;BME280;10074;52.018;4.726;2023-04-03T03:41:16;46261.34;;;-144.79;100.00
19827;BME280;10074;52.018;4.726;2023-04-03T03:46:16;46251.34;;;-144.79;100.00
19827;BME280;10074;52.018;4.726;2023-04-03T03:51:17;46247.31;;;-144.79;100.00
19827;BME280;10074;52.018;4.726;2023-04-03T03:56:17;46255.34;;;-144.79;100.00
19827;BME280;10074;52.018;4.726;2023-04-03T04:01:17;46253.34;;;-144.79;100.00
19827;BME280;10074;52.018;4.726;2023-04-03T04:06:18;46251.34;;;-144.79;100.00
19827;BME280;10074;52.018;4.726;2023-04-03T04:11:18;46249.34;;;-144.79;100.00
19827;BME280;10074;52.018;4.726;2023-04-03T04:16:19;46243.31;;;-144.79;100.00
19827;BME280;10074;52.018;4.726;2023-04-03T04:21:19;46245.31;;;-144.79;100.00
19827;BME280;10074;52.018;4.726;2023-04-03T04:26:19;46257.34;;;-144.79;100.00
19827;BME280;10074;52.018;4.726;2023-04-03T04:31:21;46247.31;;;-144.79;100.00
19827;BME280;10074;52.018;4.726;2023-04-03T04:36:21;46237.31;;;-144.79;100.00
19827;BME280;10074;52.018;4.726;2023-04-03T04:41:22;46239.31;;;-144.79;100.00
19827;BME280;10074;52.018;4.726;2023-04-03T04:46:23;46245.31;;;-144.79;100.00
19827;BME280;10074;52.018;4.726;2023-04-03T04:51:24;46247.31;;;-144.79;100.00
19827;BME280;10074;52.018;4.726;2023-04-03T04:56:25;46251.34;;;-144.79;100.00
19827;BME280;10074;52.018;4.726;2023-04-03T05:01:25;46245.31;;;-144.79;100.00
19827;BME280;10074;52.018;4.726;2023-04-03T05:06:25;46247.31;;;-144.79;100.00
19827;BME280;10074;52.018;4.726;2023-04-03T05:11:26;46231.28;;;-144.79;100.00
19827;BME280;10074;52.018;4.726;2023-04-03T05:16:26;46243.31;;;-144.79;100.00
19827;BME280;10074;52.018;4.726;2023-04-03T05:21:27;46241.31;;;-144.79;100.00
19827;BME280;10074;52.018;4.726;2023-04-03T05:26:31;46243.31;;;-144.79;100.00
19827;BME280;10074;52.018;4.726;2023-04-03T05:31:32;46235.28;;;-144.79;100.00
19827;BME280;10074;52.018;4.726;2023-04-03T05:36:32;46255.34;;;-144.79;100.00
19827;BME280;10074;52.018;4.726;2023-04-03T05:41:33;46241.31;;;-144.79;100.00
19827;BME280;10074;52.018;4.726;2023-04-03T05:46:33;46243.31;;;-144.79;100.00
19827;BME280;10074;52.018;4.726;2023-04-03T05:51:35;46243.31;;;-144.79;100.00
19827;BME280;10074;52.018;4.726;2023-04-03T05:56:36;46249.34;;;-144.79;100.00
19827;BME280;10074;52.018;4.726;2023-04-03T06:01:36;46245.31;;;-144.79;100.00
19827;BME280;10074;52.018;4.726;2023-04-03T06:06:53;46243.31;;;-144.79;100.00
19827;BME280;10074;52.018;4.726;2023-04-03T06:11:53;46241.31;;;-144.79;100.00
19827;BME280;10074;52.018;4.726;2023-04-03T06:16:54;46235.28;;;-144.79;100.00
19827;BME280;10074;52.018;4.726;2023-04-03T06:21:54;46235.28;;;-144.79;100.00
19827;BME280;10074;52.018;4.726;2023-04-03T06:26:55;46239.31;;;-144.79;100.00
19827;BME280;10074;52.018;4.726;2023-04-03T06:31:55;46223.25;;;-144.79;100.00
19827;BME280;10074;52.018;4.726;2023-04-03T06:36:55;46221.25;;;-144.79;100.00
19827;BME280;10074;52.018;4.726;2023-04-03T06:41:56;46225.28;;;-144.79;100.00
19827;BME280;10074;52.018;4.726;2023-04-03T06:46:56;46225.28;;;-144.79;100.00
19827;BME280;10074;52.018;4.726;2023-04-03T06:51:57;46235.28;;;-144.79;100.00
19827;BME280;10074;52.018;4.726;2023-04-03T06:56:58;46225.28;;;-144.79;100.00
19827;BME280;10074;52.018;4.726;2023-04-03T07:01:58;46233.28;;;-144.79;100.00
19827;BME280;10074;52.018;4.726;2023-04-03T07:06:59;46237.31;;;-144.79;100.00
19827;BME280;10074;52.018;4.726;2023-04-03T07:12:00;46229.28;;;-144.79;100.00
19827;BME280;10074;52.018;4.726;2023-04-03T07:17:00;46241.31;;;-144.79;100.00
19827;BME280;10074;52.018;4.726;2023-04-03T07:22:01;46209.22;;;-144.79;100.00
19827;BME280;10074;52.018;4.726;2023-04-03T07:27:01;46231.28;;;-144.79;100.00
19827;BME280;10074;52.018;4.726;2023-04-03T07:32:03;46245.31;;;-144.79;100.00
19827;BME280;10074;52.018;4.726;2023-04-03T07:37:03;46245.31;;;-144.79;100.00
19827;BME280;10074;52.018;4.726;2023-04-03T07:42:04;46263.38;;;-144.79;100.00
19827;BME280;10074;52.018;4.726;2023-04-03T07:47:05;46259.34;;;-144.79;100.00
19827;BME280;10074;52.018;4.726;2023-04-03T07:52:06;46255.34;;;-144.79;100.00
19827;BME280;10074;52.018;4.726;2023-04-03T07:57:07;46267.38;;;-144.79;100.00
19827;BME280;10074;52.018;4.726;2023-04-03T08:02:11;46263.38;;;-144.79;100.00
19827;BME280;10074;52.018;4.726;2023-04-03T08:07:12;46263.38;;;-144.79;100.00
19827;BME280;10074;52.018;4.726;2023-04-03T08:12:12;46259.34;;;-144.79;100.00
19827;BME280;10074;52.018;4.726;2023-04-03T08:17:14;46261.34;;;-144.79;100.00
19827;BME280;10074;52.018;4.726;2023-04-03T08:22:14;46263.38;;;-144.79;100.00
19827;BME280;10074;52.018;4.726;2023-04-03T08:27:15;46259.34;;;-144.79;100.00
19827;BME280;10074;52.018;4.726;2023-04-03T08:32:16;46271.38;;;-144.79;100.00
19827;BME280;10074;52.018;4.726;2023-04-03T08:37:16;46263.38;;;-144.79;100.00
19827;BME280;10074;52.018;4.726;2023-04-03T08:42:49;46263.38;;;-144.79;100.00
19827;BME280;10074;52.018;4.726;2023-04-03T08:48:01;46273.38;;;-144.79;100.00
19827;BME280;10074;52.018;4.726;2023-04-03T08:53:04;46263.38;;;-144.79;100.00
19827;BME280;10074;52.018;4.726;2023-04-03T08:58:12;46261.34;;;-144.79;100.00
19827;BME280;10074;52.018;4.726;2023-04-03T09:03:17;46267.38;;;-144.79;100.00
19827;BME280;10074;52.018;4.726;2023-04-03T09:08:28;46265.38;;;-144.79;100.00
19827;BME280;10074;52.018;4.726;2023-04-03T09:13:35;46267.38;;;-144.79;100.00
19827;BME280;10074;52.018;4.726;2023-04-03T09:18:45;46259.34;;;-144.79;100.00
19827;BME280;10074;52.018;4.726;2023-04-03T09:23:59;46259.34;;;-144.79;100.00
19827;BME280;10074;52.018;4.726;2023-04-03T09:29:04;46267.38;;;-144.79;100.00
19827;BME280;10074;52.018;4.726;2023-04-03T09:34:19;46263.38;;;-144.79;100.00
19827;BME280;10074;52.018;4.726;2023-04-03T09:39:24;46259.34;;;-144.79;100.00
19827;BME280;10074;52.018;4.726;2023-04-03T09:44:38;46237.31;;;-144.79;100.00
19827;BME280;10074;52.018;4.726;2023-04-03T09:49:38;46227.28;;;-144.79;100.00
19827;BME280;10074;52.018;4.726;2023-04-03T09:54:39;46223.25;;;-144.79;100.00
19827;BME280;10074;52.018;4.726;2023-04-03T09:59:58;46215.25;;;-144.79;100.00
19827;BME280;10074;52.018;4.726;2023-04-03T10:04:59;46215.25;;;-144.79;100.00
19827;BME280;10074;52.018;4.726;2023-04-03T10:15:16;46183.16;;;-144.79;100.00
19827;BME280;10074;52.018;4.726;2023-04-03T10:25:41;46171.13;;;-144.79;100.00
19827;BME280;10074;52.018;4.726;2023-04-03T10:46:34;46159.09;;;-144.79;100.00
19827;BME280;10074;52.018;4.726;2023-04-03T10:51:42;46135.03;;;-144.79;100.00
19827;BME280;10074;52.018;4.726;2023-04-03T10:56:52;46155.09;;;-144.79;100.00
19827;BME280;10074;52.018;4.726;2023-04-03T11:01:58;46151.09;;;-144.79;100.00
19827;BME280;10074;52.018;4.726;2023-04-03T11:07:02;46153.09;;;-144.79;100.00
19827;BME280;10074;52.018;4.726;2023-04-03T11:12:14;46155.09;;;-144.79;100.00
19827;BME280;10074;52.018;4.726;2023-04-03T11:22:27;46153.09;;;-144.79;100.00
19827;BME280;10074;52.018;4.726;2023-04-03T11:27:40;46133.03;;;-144.79;100.00
19827;BME280;10074;52.018;4.726;2023-04-03T11:37:52;46131.03;;;-144.79;100.00
19827;BME280;10074;52.018;4.726;2023-04-03T11:42:55;46135.03;;;-144.79;100.00
19827;BME280;10074;52.018;4.726;2023-04-03T11:53:32;46141.06;;;-144.79;100.00
19827;BME280;10074;52.018;4.726;2023-04-03T11:58:34;46139.06;;;-144.79;100.00
19827;BME280;10074;52.018;4.726;2023-04-03T12:14:02;46127.03;;;-144.79;100.00
19827;BME280;10074;52.018;4.726;2023-04-03T12:29:23;46145.06;;;-144.79;100.00
19827;BME280;10074;52.018;4.726;2023-04-03T12:45:21;46131.03;;;-144.79;100.00
19827;BME280;10074;52.018;4.726;2023-04-03T12:50:30;46207.22;;;-144.79;100.00
19827;BME280;10074;52.018;4.726;2023-04-03T12:55:30;46528.03;;;-144.79;99.44
19827;BME280;10074;52.018;4.726;2023-04-03T13:00:34;46800.75;;;-144.79;92.46
19827;BME280;10074;52.018;4.726;2023-04-03T13:05:35;46826.84;;;-144.79;89.04
19827;BME280;10074;52.018;4.726;2023-04-03T13:10:54;46818.81;;;-144.79;83.71
19827;BME280;10074;52.018;4.726;2023-04-03T13:15:55;46800.75;;;-144.79;80.82
19827;BME280;10074;52.018;4.726;2023-04-03T13:21:04;46792.75;;;-144.79;80.88
19827;BME280;10074;52.018;4.726;2023-04-03T13:26:06;46792.75;;;-144.79;79.12
19827;BME280;10074;52.018;4.726;2023-04-03T13:36:22;46772.69;;;-144.79;76.75
19827;BME280;10074;52.018;4.726;2023-04-03T13:41:31;46756.66;;;-144.79;75.13
19827;BME280;10074;52.018;4.726;2023-04-03T13:46:31;46784.72;;;-144.79;74.50
19827;BME280;10074;52.018;4.726;2023-04-03T13:51:31;46788.72;;;-144.79;73.37
19827;BME280;10074;52.018;4.726;2023-04-03T13:56:35;46764.66;;;-144.79;72.65
19827;BME280;10074;52.018;4.726;2023-04-03T14:01:50;46768.69;;;-144.79;71.17
19827;BME280;10074;52.018;4.726;2023-04-03T14:06:53;46776.69;;;-144.79;71.57
19827;BME280;10074;52.018;4.726;2023-04-03T14:11:57;46764.66;;;-144.79;70.61
19827;BME280;10074;52.018;4.726;2023-04-03T14:17:01;46772.69;;;-144.79;70.53
19827;BME280;10074;52.018;4.726;2023-04-03T14:22:23;46770.69;;;-144.79;70.20
19827;BME280;10074;52.018;4.726;2023-04-03T14:27:26;46768.69;;;-144.79;69.15
19827;BME280;10074;52.018;4.726;2023-04-03T14:32:27;46768.69;;;-144.79;69.50
19827;BME280;10074;52.018;4.726;2023-04-03T14:37:29;46780.72;;;-144.79;70.01
19827;BME280;10074;52.018;4.726;2023-04-03T14:42:33;46766.66;;;-144.79;69.04
19827;BME280;10074;52.018;4.726;2023-04-03T14:47:39;46772.69;;;-144.79;68.28
19827;BME280;10074;52.018;4.726;2023-04-03T14:52:41;46768.69;;;-144.79;68.67
19827;BME280;10074;52.018;4.726;2023-04-03T14:57:42;46766.66;;;-144.79;67.46
19827;BME280;10074;52.018;4.726;2023-04-03T15:02:43;46756.66;;;-144.79;67.21
19827;BME280;10074;52.018;4.726;2023-04-03T15:07:53;46756.66;;;-144.79;67.25
19827;BME280;10074;52.018;4.726;2023-04-03T15:12:55;46760.66;;;-144.79;66.60
19827;BME280;10074;52.018;4.726;2023-04-03T15:17:56;46772.69;;;-144.79;67.13
19827;BME280;10074;52.018;4.726;2023-04-03T15:23:00;46762.66;;;-144.79;65.69
19827;BME280;10074;52.018;4.726;2023-04-03T15:28:01;46776.69;;;-144.79;65.50
19827;BME280;10074;52.018;4.726;2023-04-03T15:33:01;46778.69;;;-144.79;65.73
19827;BME280;10074;52.018;4.726;2023-04-03T15:38:02;46758.66;;;-144.79;64.89
19827;BME280;10074;52.018;4.726;2023-04-03T15:43:02;46762.66;;;-144.79;64.80
19827;BME280;10074;52.018;4.726;2023-04-03T15:48:04;46776.69;;;-144.79;64.74
19827;BME280;10074;52.018;4.726;2023-04-03T15:53:05;46770.69;;;-144.79;64.40
19827;BME280;10074;52.018;4.726;2023-04-03T15:58:05;46766.66;;;-144.79;64.62
19827;BME280;10074;52.018;4.726;2023-04-03T16:03:10;46770.69;;;-144.79;64.37
19827;BME280;10074;52.018;4.726;2023-04-03T16:08:11;46772.69;;;-144.79;65.77
19827;BME280;10074;52.018;4.726;2023-04-03T16:13:13;46760.66;;;-144.79;68.73
19827;BME280;10074;52.018;4.726;2023-04-03T16:18:14;46768.69;;;-144.79;70.09
19827;BME280;10074;52.018;4.726;2023-04-03T16:23:15;46770.69;;;-144.79;70.97
19827;BME280;10074;52.018;4.726;2023-04-03T16:28:16;46768.69;;;-144.79;71.64
19827;BME280;10074;52.018;4.726;2023-04-03T16:33:17;46762.66;;;-144.79;71.78
19827;BME280;10074;52.018;4.726;2023-04-03T16:38:21;46772.69;;;-144.79;73.27
19827;BME280;10074;52.018;4.726;2023-04-03T16:43:22;46772.69;;;-144.79;73.65
19827;BME280;10074;52.018;4.726;2023-04-03T16:48:22;46758.66;;;-144.79;73.29
19827;BME280;10074;52.018;4.726;2023-04-03T16:53:24;46772.69;;;-144.79;73.83
19827;BME280;10074;52.018;4.726;2023-04-03T16:58:24;46776.69;;;-144.79;74.32
19827;BME280;10074;52.018;4.726;2023-04-03T17:03:25;46764.66;;;-144.79;74.10
19827;BME280;10074;52.018;4.726;2023-04-03T17:08:26;46764.66;;;-144.79;74.05
19827;BME280;10074;52.018;4.726;2023-04-03T17:13:26;46764.66;;;-144.79;74.46
19827;BME280;10074;52.018;4.726;2023-04-03T17:18:32;46778.69;;;-144.79;74.62
19827;BME280;10074;52.018;4.726;2023-04-03T17:23:35;46774.69;;;-144.79;74.55
19827;BME280;10074;52.018;4.726;2023-04-03T17:28:37;46780.72;;;-144.79;76.98
19827;BME280;10074;52.018;4.726;2023-04-03T17:33:39;46766.66;;;-144.79;77.40
19827;BME280;10074;52.018;4.726;2023-04-03T17:38:40;46772.69;;;-144.79;78.54
19827;BME280;10074;52.018;4.726;2023-04-03T17:43:40;46780.72;;;-144.79;79.87
19827;BME280;10074;52.018;4.726;2023-04-03T17:48:41;46782.72;;;-144.79;80.68
19827;BME280;10074;52.018;4.726;2023-04-03T17:53:42;46800.75;;;-144.79;82.10
19827;BME280;10074;52.018;4.726;2023-04-03T17:58:44;46786.72;;;-144.79;83.08
19827;BME280;10074;52.018;4.726;2023-04-03T18:03:45;46796.75;;;-144.79;84.29
19827;BME280;10074;52.018;4.726;2023-04-03T18:08:56;46818.81;;;-144.79;86.14
19827;BME280;10074;52.018;4.726;2023-04-03T18:13:59;46796.75;;;-144.79;87.32
19827;BME280;10074;52.018;4.726;2023-04-03T18:19:01;46804.78;;;-144.79;87.07
19827;BME280;10074;52.018;4.726;2023-04-03T18:24:02;46828.84;;;-144.79;88.98
19827;BME280;10074;52.018;4.726;2023-04-03T18:29:05;46824.81;;;-144.79;89.48
19827;BME280;10074;52.018;4.726;2023-04-03T18:34:07;46830.84;;;-144.79;89.46
19827;BME280;10074;52.018;4.726;2023-04-03T18:39:08;46830.84;;;-144.79;90.70
19827;BME280;10074;52.018;4.726;2023-04-03T18:44:11;46844.88;;;-144.79;92.55
19827;BME280;10074;52.018;4.726;2023-04-03T18:49:14;46824.81;;;-144.79;93.44
19827;BME280;10074;52.018;4.726;2023-04-03T18:54:17;46822.81;;;-144.79;93.41
19827;BME280;10074;52.018;4.726;2023-04-03T18:59:17;46832.84;;;-144.79;94.40
19827;BME280;10074;52.018;4.726;2023-04-03T19:04:17;46834.84;;;-144.79;95.20
19827;BME280;10074;52.018;4.726;2023-04-03T19:09:18;46832.84;;;-144.79;95.51
19827;BME280;10074;52.018;4.726;2023-04-03T19:14:18;46824.81;;;-144.79;95.78
19827;BME280;10074;52.018;4.726;2023-04-03T19:19:19;46826.84;;;-144.79;97.01
19827;BME280;10074;52.018;4.726;2023-04-03T19:24:19;46816.81;;;-144.79;97.95
19827;BME280;10074;52.018;4.726;2023-04-03T19:29:20;46796.75;;;-144.79;98.75
19827;BME280;10074;52.018;4.726;2023-04-03T19:34:21;46808.78;;;-144.79;99.05
19827;BME280;10074;52.018;4.726;2023-04-03T19:39:21;46792.75;;;-144.79;98.54
19827;BME280;10074;52.018;4.726;2023-04-03T19:44:21;46780.72;;;-144.79;99.83
19827;BME280;10074;52.018;4.726;2023-04-03T19:49:22;46772.69;;;-144.79;100.00
19827;BME280;10074;52.018;4.726;2023-04-03T19:54:22;46752.63;;;-144.79;100.00
19827;BME280;10074;52.018;4.726;2023-04-03T19:59:23;46720.53;;;-144.79;100.00
19827;BME280;10074;52.018;4.726;2023-04-03T20:04:23;46692.47;;;-144.79;100.00
19827;BME280;10074;52.018;4.726;2023-04-03T20:09:23;46632.31;;;-144.79;100.00
19827;BME280;10074;52.018;4.726;2023-04-03T20:14:24;46608.25;;;-144.79;100.00
19827;BME280;10074;52.018;4.726;2023-04-03T20:19:25;46572.16;;;-144.79;100.00
19827;BME280;10074;52.018;4.726;2023-04-03T20:24:25;46540.06;;;-144.79;100.00
19827;BME280;10074;52.018;4.726;2023-04-03T20:29:27;46548.09;;;-144.79;100.00
19827;BME280;10074;52.018;4.726;2023-04-03T20:34:28;46528.03;;;-144.79;100.00
19827;BME280;10074;52.018;4.726;2023-04-03T20:39:28;46491.94;;;-144.79;100.00
19827;BME280;10074;52.018;4.726;2023-04-03T20:44:29;46477.91;;;-144.79;100.00
19827;BME280;10074;52.018;4.726;2023-04-03T20:49:31;46451.84;;;-144.79;100.00
19827;BME280;10074;52.018;4.726;2023-04-03T20:54:31;46419.75;;;-144.79;100.00
19827;BME280;10074;52.018;4.726;2023-04-03T20:59:31;46437.81;;;-144.79;100.00
19827;BME280;10074;52.018;4.726;2023-04-03T21:04:38;46403.72;;;-144.79;100.00
19827;BME280;10074;52.018;4.726;2023-04-03T21:20:51;46361.63;;;-144.79;100.00
19827;BME280;10074;52.018;4.726;2023-04-03T21:25:51;46287.44;;;-144.79;100.00
19827;BME280;10074;52.018;4.726;2023-04-03T21:30:51;46317.50;;;-144.79;100.00
19827;BME280;10074;52.018;4.726;2023-04-03T21:35:51;46303.47;;;-144.79;100.00
19827;BME280;10074;52.018;4.726;2023-04-03T21:40:58;46313.50;;;-144.79;100.00
19827;BME280;10074;52.018;4.726;2023-04-03T21:45:59;46311.50;;;-144.79;100.00
19827;BME280;10074;52.018;4.726;2023-04-03T21:51:05;46279.41;;;-144.79;100.00
19827;BME280;10074;52.018;4.726;2023-04-03T21:56:06;46243.31;;;-144.79;100.00
19827;BME280;10074;52.018;4.726;2023-04-03T22:01:12;46251.34;;;-144.79;100.00
19827;BME280;10074;52.018;4.726;2023-04-03T22:06:14;46249.34;;;-144.79;100.00
19827;BME280;10074;52.018;4.726;2023-04-03T22:11:15;46257.34;;;-144.79;100.00
19827;BME280;10074;52.018;4.726;2023-04-03T22:16:15;46235.28;;;-144.79;100.00
19827;BME280;10074;52.018;4.726;2023-04-03T22:21:16;46273.38;;;-144.79;100.00
19827;BME280;10074;52.018;4.726;2023-04-03T22:26:16;46221.25;;;-144.79;100.00
19827;BME280;10074;52.018;4.726;2023-04-03T22:31:17;46253.34;;;-144.79;100.00
19827;BME280;10074;52.018;4.726;2023-04-03T22:36:17;46255.34;;;-144.79;100.00
19827;BME280;10074;52.018;4.726;2023-04-03T22:41:18;46211.22;;;-144.79;100.00
19827;BME280;10074;52.018;4.726;2023-04-03T22:46:18;46207.22;;;-144.79;100.00
19827;BME280;10074;52.018;4.726;2023-04-03T22:51:19;46207.22;;;-144.79;100.00
19827;BME280;10074;52.018;4.726;2023-04-03T22:56:19;46197.19;;;-144.79;100.00
19827;BME280;10074;52.018;4.726;2023-04-03T23:01:21;46185.16;;;-144.79;100.00
19827;BME280;10074;52.018;4.726;2023-04-03T23:06:23;46211.22;;;-144.79;100.00
19827;BME280;10074;52.018;4.726;2023-04-03T23:11:23;46171.13;;;-144.79;100.00
19827;BME280;10074;52.018;4.726;2023-04-03T23:16:23;46219.25;;;-144.79;100.00
19827;BME280;10074;52.018;4.726;2023-04-03T23:21:23;46193.19;;;-144.79;100.00
19827;BME280;10074;52.018;4.726;2023-04-03T23:26:24;46189.19;;;-144.79;100.00
19827;BME280;10074;52.018;4.726;2023-04-03T23:31:25;46165.13;;;-144.79;100.00
19827;BME280;10074;52.018;4.726;2023-04-03T23:36:25;46165.13;;;-144.79;100.00
19827;BME280;10074;52.018;4.726;2023-04-03T23:41:26;46185.16;;;-144.79;100.00
19827;BME280;10074;52.018;4.726;2023-04-03T23:46:26;46165.13;;;-144.79;100.00
19827;BME280;10074;52.018;4.726;2023-04-03T23:51:26;46203.22;;;-144.79;100.00
19827;BME280;10074;52.018;4.726;2023-04-03T23:56:27;46187.19;;;-144.79;100.00
